sensor_id;sensor_type;location;lat;lon;timestamp;pressure;altitude;pressure_sealevel;temperature;humidity
43820;BME280;67762;52.476;6.046;2023-02-21T00:03:32;101900.66;;;9.24;82.30
43820;BME280;67762;52.476;6.046;2023-02-21T00:06:16;101907.66;;;9.25;82.49
43820;BME280;67762;52.476;6.046;2023-02-21T00:09:00;101909.22;;;9.27;82.47
43820;BME280;67762;52.476;6.046;2023-02-21T00:11:44;101911.78;;;9.29;82.47
43820;BME280;67762;52.476;6.046;2023-02-21T00:14:29;101912.63;;;9.29;82.31
43820;BME280;67762;52.476;6.046;2023-02-21T00:17:13;101899.44;;;9.28;82.38
43820;BME280;67762;52.476;6.046;2023-02-21T00:19:57;101904.75;;;9.28;82.30
43820;BME280;67762;52.476;6.046;2023-02-21T00:22:41;101899.44;;;9.28;82.22
43820;BME280;67762;52.476;6.046;2023-02-21T00:25:25;101902.94;;;9.28;82.38
43820;BME280;67762;52.476;6.046;2023-02-21T00:28:09;101893.97;;;9.29;82.43
43820;BME280;67762;52.476;6.046;2023-02-21T00:30:54;101884.28;;;9.28;82.23
43820;BME280;67762;52.476;6.046;2023-02-21T00:33:38;101902.09;;;9.28;82.88
43820;BME280;67762;52.476;6.046;2023-02-21T00:36:22;101887.09;;;9.27;82.49
43820;BME280;67762;52.476;6.046;2023-02-21T00:39:06;101902.34;;;9.25;82.28
43820;BME280;67762;52.476;6.046;2023-02-21T00:41:50;101890.88;;;9.24;81.96
43820;BME280;67762;52.476;6.046;2023-02-21T00:44:35;101887.22;;;9.25;82.37
43820;BME280;67762;52.476;6.046;2023-02-21T00:47:19;101894.50;;;9.23;82.41
43820;BME280;67762;52.476;6.046;2023-02-21T00:50:03;101898.97;;;9.23;82.44
43820;BME280;67762;52.476;6.046;2023-02-21T00:52:47;101900.78;;;9.22;82.42
43820;BME280;67762;52.476;6.046;2023-02-21T00:55:32;101900.78;;;9.22;82.41
43820;BME280;67762;52.476;6.046;2023-02-21T00:58:16;101887.47;;;9.22;82.53
43820;BME280;67762;52.476;6.046;2023-02-21T01:01:03;101883.84;;;9.23;82.77
43820;BME280;67762;52.476;6.046;2023-02-21T01:03:48;101876.81;;;9.22;82.64
43820;BME280;67762;52.476;6.046;2023-02-21T01:06:32;101880.34;;;9.23;82.59
43820;BME280;67762;52.476;6.046;2023-02-21T01:09:16;101885.81;;;9.21;82.86
43820;BME280;67762;52.476;6.046;2023-02-21T01:12:01;101875.16;;;9.21;82.43
43820;BME280;67762;52.476;6.046;2023-02-21T01:14:45;101877.94;;;9.20;82.61
43820;BME280;67762;52.476;6.046;2023-02-21T01:17:29;101878.91;;;9.19;82.86
43820;BME280;67762;52.476;6.046;2023-02-21T01:20:14;101879.03;;;9.17;82.61
43820;BME280;67762;52.476;6.046;2023-02-21T01:22:58;101878.19;;;9.17;82.61
43820;BME280;67762;52.476;6.046;2023-02-21T01:25:42;101872.00;;;9.16;82.62
43820;BME280;67762;52.476;6.046;2023-02-21T01:28:27;101887.03;;;9.17;82.95
43820;BME280;67762;52.476;6.046;2023-02-21T01:31:16;101878.19;;;9.17;82.62
43820;BME280;67762;52.476;6.046;2023-02-21T01:34:00;101875.53;;;9.17;82.50
43820;BME280;67762;52.476;6.046;2023-02-21T01:36:46;101865.88;;;9.16;82.62
43820;BME280;67762;52.476;6.046;2023-02-21T01:39:30;101879.03;;;9.17;82.76
43820;BME280;67762;52.476;6.046;2023-02-21T01:42:14;101881.69;;;9.17;83.20
43820;BME280;67762;52.476;6.046;2023-02-21T01:48:05;101872.84;;;9.17;82.65
43820;BME280;67762;52.476;6.046;2023-02-21T01:50:51;101888.72;;;9.18;82.85
43820;BME280;67762;52.476;6.046;2023-02-21T01:53:36;101878.91;;;9.19;82.87
43820;BME280;67762;52.476;6.046;2023-02-21T01:56:20;101879.75;;;9.19;82.64
43820;BME280;67762;52.476;6.046;2023-02-21T01:59:04;101884.09;;;9.20;82.92
43820;BME280;67762;52.476;6.046;2023-02-21T02:01:57;101873.44;;;9.20;83.00
43820;BME280;67762;52.476;6.046;2023-02-21T02:04:43;101874.41;;;9.19;83.20
43820;BME280;67762;52.476;6.046;2023-02-21T02:07:30;101870.78;;;9.20;83.02
43820;BME280;67762;52.476;6.046;2023-02-21T02:10:15;101866.41;;;9.19;82.99
43820;BME280;67762;52.476;6.046;2023-02-21T02:16:06;101871.75;;;9.19;82.97
43820;BME280;67762;52.476;6.046;2023-02-21T02:21:39;101860.38;;;9.17;82.98
43820;BME280;67762;52.476;6.046;2023-02-21T02:26:58;101858.69;;;9.16;83.66
43820;BME280;67762;52.476;6.046;2023-02-21T02:37:22;101847.59;;;9.11;83.34
43820;BME280;67762;52.476;6.046;2023-02-21T02:45:29;101852.06;;;9.11;83.53
43820;BME280;67762;52.476;6.046;2023-02-21T02:48:21;101846.75;;;9.11;83.57
43820;BME280;67762;52.476;6.046;2023-02-21T02:50:48;101846.03;;;9.09;83.40
43820;BME280;67762;52.476;6.046;2023-02-21T02:53:20;101845.19;;;9.08;83.47
43820;BME280;67762;52.476;6.046;2023-02-21T02:55:57;101859.50;;;9.07;83.40
43820;BME280;67762;52.476;6.046;2023-02-21T02:58:27;101844.47;;;9.06;83.43
43820;BME280;67762;52.476;6.046;2023-02-21T03:03:37;101851.63;;;9.06;83.61
43820;BME280;67762;52.476;6.046;2023-02-21T03:11:27;101847.13;;;9.06;83.69
43820;BME280;67762;52.476;6.046;2023-02-21T03:16:32;101845.34;;;9.07;83.92
43820;BME280;67762;52.476;6.046;2023-02-21T03:19:33;101848.97;;;9.06;83.59
43820;BME280;67762;52.476;6.046;2023-02-21T03:22:08;101857.78;;;9.06;83.62
43820;BME280;67762;52.476;6.046;2023-02-21T03:24:37;101855.97;;;9.07;83.84
43820;BME280;67762;52.476;6.046;2023-02-21T03:27:06;101855.13;;;9.06;83.76
43820;BME280;67762;52.476;6.046;2023-02-21T03:29:52;101864.94;;;9.06;83.61
43820;BME280;67762;52.476;6.046;2023-02-21T03:32:28;101860.44;;;9.06;83.80
43820;BME280;67762;52.476;6.046;2023-02-21T03:34:55;101863.13;;;9.06;83.92
43820;BME280;67762;52.476;6.046;2023-02-21T03:39:56;101865.66;;;9.08;83.78
43820;BME280;67762;52.476;6.046;2023-02-21T03:42:22;101866.47;;;9.08;84.07
43820;BME280;67762;52.476;6.046;2023-02-21T03:44:48;101873.50;;;9.09;83.76
43820;BME280;67762;52.476;6.046;2023-02-21T03:47:14;101877.13;;;9.08;83.92
43820;BME280;67762;52.476;6.046;2023-02-21T03:49:40;101880.53;;;9.10;83.89
43820;BME280;67762;52.476;6.046;2023-02-21T03:52:06;101880.66;;;9.09;84.08
43820;BME280;67762;52.476;6.046;2023-02-21T03:54:32;101888.53;;;9.10;84.07
43820;BME280;67762;52.476;6.046;2023-02-21T03:56:58;101885.88;;;9.10;84.30
43820;BME280;67762;52.476;6.046;2023-02-21T03:59:27;101895.53;;;9.11;84.01
43820;BME280;67762;52.476;6.046;2023-02-21T04:01:53;101895.53;;;9.11;83.95
43820;BME280;67762;52.476;6.046;2023-02-21T04:04:20;101886.56;;;9.12;84.12
43820;BME280;67762;52.476;6.046;2023-02-21T04:06:53;101888.28;;;9.13;83.86
43820;BME280;67762;52.476;6.046;2023-02-21T04:09:19;101890.19;;;9.11;84.08
43820;BME280;67762;52.476;6.046;2023-02-21T04:11:45;101883.91;;;9.12;83.99
43820;BME280;67762;52.476;6.046;2023-02-21T04:14:12;101895.53;;;9.11;84.02
43820;BME280;67762;52.476;6.046;2023-02-21T04:16:39;101885.88;;;9.10;84.08
43820;BME280;67762;52.476;6.046;2023-02-21T04:19:05;101893.72;;;9.12;83.80
43820;BME280;67762;52.476;6.046;2023-02-21T04:21:31;101894.66;;;9.11;84.03
43820;BME280;67762;52.476;6.046;2023-02-21T04:23:58;101890.34;;;9.10;83.81
43820;BME280;67762;52.476;6.046;2023-02-21T04:26:28;101899.28;;;9.09;83.91
43820;BME280;67762;52.476;6.046;2023-02-21T04:28:55;101900.38;;;9.06;84.27
43820;BME280;67762;52.476;6.046;2023-02-21T04:31:21;101889.88;;;9.05;84.24
43820;BME280;67762;52.476;6.046;2023-02-21T04:33:49;101887.47;;;9.02;83.86
43820;BME280;67762;52.476;6.046;2023-02-21T04:36:20;101892.91;;;9.00;84.02
43820;BME280;67762;52.476;6.046;2023-02-21T04:38:46;101889.53;;;8.98;84.41
43820;BME280;67762;52.476;6.046;2023-02-21T04:41:12;101888.84;;;8.96;84.27
43820;BME280;67762;52.476;6.046;2023-02-21T04:43:41;101886.28;;;8.95;84.45
43820;BME280;67762;52.476;6.046;2023-02-21T04:46:07;101886.41;;;8.93;84.68
43820;BME280;67762;52.476;6.046;2023-02-21T04:48:33;101879.41;;;8.92;84.61
43820;BME280;67762;52.476;6.046;2023-02-21T04:50:58;101874.22;;;8.91;84.99
43820;BME280;67762;52.476;6.046;2023-02-21T04:53:24;101876.88;;;8.91;84.93
43820;BME280;67762;52.476;6.046;2023-02-21T04:55:49;101876.88;;;8.91;85.00
43820;BME280;67762;52.476;6.046;2023-02-21T04:58:15;101871.81;;;8.88;85.02
43820;BME280;67762;52.476;6.046;2023-02-21T05:00:41;101883.41;;;8.87;85.11
43820;BME280;67762;52.476;6.046;2023-02-21T05:03:06;101878.94;;;8.87;84.95
43820;BME280;67762;52.476;6.046;2023-02-21T05:05:32;101881.59;;;8.87;85.13
43820;BME280;67762;52.476;6.046;2023-02-21T05:07:57;101879.91;;;8.86;84.99
43820;BME280;67762;52.476;6.046;2023-02-21T05:10:23;101876.44;;;8.86;85.32
43820;BME280;67762;52.476;6.046;2023-02-21T05:12:48;101879.09;;;8.86;85.47
43820;BME280;67762;52.476;6.046;2023-02-21T05:15:14;101888.88;;;8.85;85.56
43820;BME280;67762;52.476;6.046;2023-02-21T05:17:40;101879.19;;;8.84;85.42
43820;BME280;67762;52.476;6.046;2023-02-21T05:20:06;101878.22;;;8.85;85.61
43820;BME280;67762;52.476;6.046;2023-02-21T05:22:37;101878.34;;;8.83;85.67
43820;BME280;67762;52.476;6.046;2023-02-21T05:25:19;101886.22;;;8.85;85.55
43820;BME280;67762;52.476;6.046;2023-02-21T05:27:45;101885.38;;;8.85;85.88
43820;BME280;67762;52.476;6.046;2023-02-21T05:30:12;101881.84;;;8.84;85.89
43820;BME280;67762;52.476;6.046;2023-02-21T05:32:39;101875.69;;;8.83;85.90
43820;BME280;67762;52.476;6.046;2023-02-21T05:35:05;101881.00;;;8.83;85.98
43820;BME280;67762;52.476;6.046;2023-02-21T05:37:30;101879.19;;;8.84;85.94
43820;BME280;67762;52.476;6.046;2023-02-21T05:39:56;101876.53;;;8.84;85.95
43820;BME280;67762;52.476;6.046;2023-02-21T05:42:21;101881.00;;;8.83;85.71
43820;BME280;67762;52.476;6.046;2023-02-21T05:44:47;101878.34;;;8.83;86.29
43820;BME280;67762;52.476;6.046;2023-02-21T05:47:13;101873.03;;;8.83;86.20
43820;BME280;67762;52.476;6.046;2023-02-21T05:49:40;101875.69;;;8.83;86.33
43820;BME280;67762;52.476;6.046;2023-02-21T05:52:07;101871.34;;;8.82;86.01
43820;BME280;67762;52.476;6.046;2023-02-21T05:54:33;101878.47;;;8.82;86.18
43820;BME280;67762;52.476;6.046;2023-02-21T05:56:59;101874.00;;;8.82;86.51
43820;BME280;67762;52.476;6.046;2023-02-21T05:59:24;101874.00;;;8.82;86.13
43820;BME280;67762;52.476;6.046;2023-02-21T06:01:50;101874.00;;;8.82;85.75
43820;BME280;67762;52.476;6.046;2023-02-21T06:04:16;101868.69;;;8.82;86.56
43820;BME280;67762;52.476;6.046;2023-02-21T06:06:42;101872.16;;;8.83;86.23
43820;BME280;67762;52.476;6.046;2023-02-21T06:09:08;101860.56;;;8.84;86.43
43820;BME280;67762;52.476;6.046;2023-02-21T06:11:35;101855.25;;;8.84;86.59
43820;BME280;67762;52.476;6.046;2023-02-21T06:14:04;101862.38;;;8.83;86.28
43820;BME280;67762;52.476;6.046;2023-02-21T06:16:37;101865.88;;;8.84;86.76
43820;BME280;67762;52.476;6.046;2023-02-21T06:19:05;101854.38;;;8.83;86.27
43820;BME280;67762;52.476;6.046;2023-02-21T06:21:31;101855.25;;;8.84;86.38
43820;BME280;67762;52.476;6.046;2023-02-21T06:23:57;101859.59;;;8.85;86.94
43820;BME280;67762;52.476;6.046;2023-02-21T06:26:23;101866.59;;;8.86;86.41
43820;BME280;67762;52.476;6.046;2023-02-21T06:28:49;101860.31;;;8.87;86.84
43820;BME280;67762;52.476;6.046;2023-02-21T06:31:17;101870.97;;;8.87;86.88
43820;BME280;67762;52.476;6.046;2023-02-21T06:33:43;101877.00;;;8.89;86.63
43820;BME280;67762;52.476;6.046;2023-02-21T06:36:17;101869.16;;;8.88;86.76
43820;BME280;67762;52.476;6.046;2023-02-21T06:38:48;101866.47;;;8.88;86.32
43820;BME280;67762;52.476;6.046;2023-02-21T06:41:17;101865.50;;;8.89;86.28
43820;BME280;67762;52.476;6.046;2023-02-21T06:43:43;101874.31;;;8.89;86.76
43820;BME280;67762;52.476;6.046;2023-02-21T06:46:09;101888.38;;;8.91;86.49
43820;BME280;67762;52.476;6.046;2023-02-21T06:48:35;101896.06;;;8.94;86.61
43820;BME280;67762;52.476;6.046;2023-02-21T06:51:01;101881.81;;;8.95;86.33
43820;BME280;67762;52.476;6.046;2023-02-21T06:53:30;101883.50;;;8.96;86.73
43820;BME280;67762;52.476;6.046;2023-02-21T06:55:55;101891.34;;;8.98;86.67
43820;BME280;67762;52.476;6.046;2023-02-21T06:58:21;101891.34;;;8.98;86.20
43820;BME280;67762;52.476;6.046;2023-02-21T07:00:46;101884.22;;;8.98;86.55
43820;BME280;67762;52.476;6.046;2023-02-21T07:03:12;101898.38;;;8.99;86.61
43820;BME280;67762;52.476;6.046;2023-02-21T07:05:38;101895.72;;;8.99;86.40
43820;BME280;67762;52.476;6.046;2023-02-21T07:08:03;101883.25;;;8.99;86.33
43820;BME280;67762;52.476;6.046;2023-02-21T07:10:29;101885.06;;;8.99;86.06
43820;BME280;67762;52.476;6.046;2023-02-21T07:12:55;101891.25;;;8.99;86.45
43820;BME280;67762;52.476;6.046;2023-02-21T07:15:21;101888.44;;;9.01;86.37
43820;BME280;67762;52.476;6.046;2023-02-21T07:17:47;101884.81;;;9.02;86.36
43820;BME280;67762;52.476;6.046;2023-02-21T07:20:13;101874.16;;;9.02;86.32
43820;BME280;67762;52.476;6.046;2023-02-21T07:22:38;101887.34;;;9.03;86.37
43820;BME280;67762;52.476;6.046;2023-02-21T07:25:04;101881.03;;;9.04;86.34
43820;BME280;67762;52.476;6.046;2023-02-21T07:27:30;101882.00;;;9.03;85.94
43820;BME280;67762;52.476;6.046;2023-02-21T07:29:56;101886.38;;;9.04;86.27
43820;BME280;67762;52.476;6.046;2023-02-21T07:32:21;101883.56;;;9.06;85.81
43820;BME280;67762;52.476;6.046;2023-02-21T07:34:47;101872.81;;;9.07;85.89
43820;BME280;67762;52.476;6.046;2023-02-21T07:37:13;101880.78;;;9.07;85.99
43820;BME280;67762;52.476;6.046;2023-02-21T07:39:39;101880.66;;;9.09;85.77
43820;BME280;67762;52.476;6.046;2023-02-21T07:42:05;101886.81;;;9.09;86.42
43820;BME280;67762;52.476;6.046;2023-02-21T07:44:33;101877.88;;;9.10;86.12
43820;BME280;67762;52.476;6.046;2023-02-21T07:46:58;101887.53;;;9.11;85.92
43820;BME280;67762;52.476;6.046;2023-02-21T07:49:24;101877.72;;;9.12;85.97
43820;BME280;67762;52.476;6.046;2023-02-21T07:51:50;101885.59;;;9.13;85.80
43820;BME280;67762;52.476;6.046;2023-02-21T07:54:16;101881.94;;;9.14;86.07
43820;BME280;67762;52.476;6.046;2023-02-21T07:56:44;101883.50;;;9.17;85.67
43820;BME280;67762;52.476;6.046;2023-02-21T07:59:09;101885.22;;;9.18;85.76
43820;BME280;67762;52.476;6.046;2023-02-21T08:01:35;101884.09;;;9.20;85.72
43820;BME280;67762;52.476;6.046;2023-02-21T08:04:00;101892.78;;;9.22;85.55
43820;BME280;67762;52.476;6.046;2023-02-21T08:06:26;101889.03;;;9.25;85.67
43820;BME280;67762;52.476;6.046;2023-02-21T08:08:52;101884.44;;;9.27;85.69
43820;BME280;67762;52.476;6.046;2023-02-21T08:11:17;101887.81;;;9.29;85.55
43820;BME280;67762;52.476;6.046;2023-02-21T08:13:43;101894.84;;;9.30;85.54
43820;BME280;67762;52.476;6.046;2023-02-21T08:16:09;101890.31;;;9.30;85.68
43820;BME280;67762;52.476;6.046;2023-02-21T08:18:35;101897.22;;;9.33;85.62
43820;BME280;67762;52.476;6.046;2023-02-21T08:21:00;101898.81;;;9.35;85.61
43820;BME280;67762;52.476;6.046;2023-02-21T08:23:26;101898.66;;;9.37;84.99
43820;BME280;67762;52.476;6.046;2023-02-21T08:25:52;101896.69;;;9.39;85.39
43820;BME280;67762;52.476;6.046;2023-02-21T08:28:18;101898.41;;;9.40;85.07
43820;BME280;67762;52.476;6.046;2023-02-21T08:30:43;101901.66;;;9.44;84.96
43820;BME280;67762;52.476;6.046;2023-02-21T08:33:09;101898.59;;;9.48;84.99
43820;BME280;67762;52.476;6.046;2023-02-21T08:35:35;101889.63;;;9.49;85.11
43820;BME280;67762;52.476;6.046;2023-02-21T08:38:00;101891.19;;;9.52;84.95
43820;BME280;67762;52.476;6.046;2023-02-21T08:40:30;101889.06;;;9.55;84.71
43820;BME280;67762;52.476;6.046;2023-02-21T08:42:57;101888.81;;;9.58;84.83
43820;BME280;67762;52.476;6.046;2023-02-21T08:45:24;101887.00;;;9.59;84.63
43820;BME280;67762;52.476;6.046;2023-02-21T08:47:51;101889.56;;;9.60;84.55
43820;BME280;67762;52.476;6.046;2023-02-21T08:50:19;101884.91;;;9.62;84.60
43820;BME280;67762;52.476;6.046;2023-02-21T08:52:45;101891.81;;;9.65;84.60
43820;BME280;67762;52.476;6.046;2023-02-21T08:55:12;101890.00;;;9.65;84.51
43820;BME280;67762;52.476;6.046;2023-02-21T08:57:38;101888.19;;;9.66;84.64
43820;BME280;67762;52.476;6.046;2023-02-21T09:00:05;101881.00;;;9.66;84.58
43820;BME280;67762;52.476;6.046;2023-02-21T09:02:35;101893.34;;;9.67;84.14
43820;BME280;67762;52.476;6.046;2023-02-21T09:05:13;101890.69;;;9.67;84.18
43820;BME280;67762;52.476;6.046;2023-02-21T09:07:40;101889.72;;;9.68;84.02
43820;BME280;67762;52.476;6.046;2023-02-21T09:10:06;101889.00;;;9.66;83.97
43820;BME280;67762;52.476;6.046;2023-02-21T09:12:34;101892.41;;;9.68;83.98
43820;BME280;67762;52.476;6.046;2023-02-21T09:15:00;101886.22;;;9.68;84.12
43820;BME280;67762;52.476;6.046;2023-02-21T09:17:26;101886.06;;;9.69;84.01
43820;BME280;67762;52.476;6.046;2023-02-21T09:19:51;101881.00;;;9.66;83.57
43820;BME280;67762;52.476;6.046;2023-02-21T09:22:17;101888.03;;;9.67;83.64
43820;BME280;67762;52.476;6.046;2023-02-21T09:24:43;101889.47;;;9.71;83.79
43820;BME280;67762;52.476;6.046;2023-02-21T09:27:08;101882.28;;;9.72;83.85
43820;BME280;67762;52.476;6.046;2023-02-21T09:29:35;101884.13;;;9.71;83.98
43820;BME280;67762;52.476;6.046;2023-02-21T09:32:02;101879.91;;;9.69;83.56
43820;BME280;67762;52.476;6.046;2023-02-21T09:34:29;101879.78;;;9.70;83.65
43820;BME280;67762;52.476;6.046;2023-02-21T09:36:55;101889.47;;;9.71;83.69
43820;BME280;67762;52.476;6.046;2023-02-21T09:39:21;101888.72;;;9.69;83.74
43820;BME280;67762;52.476;6.046;2023-02-21T09:41:48;101882.69;;;9.67;83.47
43820;BME280;67762;52.476;6.046;2023-02-21T09:44:23;101886.06;;;9.69;83.36
43820;BME280;67762;52.476;6.046;2023-02-21T09:47:11;101890.56;;;9.69;83.95
43820;BME280;67762;52.476;6.046;2023-02-21T09:49:41;101889.47;;;9.71;83.84
43820;BME280;67762;52.476;6.046;2023-02-21T09:52:35;101891.88;;;9.74;83.90
43820;BME280;67762;52.476;6.046;2023-02-21T09:55:15;101887.34;;;9.75;83.73
43820;BME280;67762;52.476;6.046;2023-02-21T09:57:44;101891.13;;;9.72;83.63
43820;BME280;67762;52.476;6.046;2023-02-21T10:00:17;101884.69;;;9.75;83.82
43820;BME280;67762;52.476;6.046;2023-02-21T10:03:07;101888.19;;;9.75;83.20
43820;BME280;67762;52.476;6.046;2023-02-21T10:05:45;101886.38;;;9.76;83.29
43820;BME280;67762;52.476;6.046;2023-02-21T10:08:24;101882.03;;;9.75;83.41
43820;BME280;67762;52.476;6.046;2023-02-21T10:10:56;101881.66;;;9.79;83.37
43820;BME280;67762;52.476;6.046;2023-02-21T10:13:38;101884.88;;;9.83;83.40
43820;BME280;67762;52.476;6.046;2023-02-21T10:16:17;101879.41;;;9.84;83.29
43820;BME280;67762;52.476;6.046;2023-02-21T10:19:02;101876.59;;;9.86;83.26
43820;BME280;67762;52.476;6.046;2023-02-21T10:21:35;101882.66;;;9.88;83.45
43820;BME280;67762;52.476;6.046;2023-02-21T10:24:13;101875.50;;;9.88;83.43
43820;BME280;67762;52.476;6.046;2023-02-21T10:26:41;101889.41;;;9.92;83.11
43820;BME280;67762;52.476;6.046;2023-02-21T10:29:22;101888.44;;;9.93;83.13
43820;BME280;67762;52.476;6.046;2023-02-21T10:31:55;101895.44;;;9.94;83.09
43820;BME280;67762;52.476;6.046;2023-02-21T10:34:26;101895.31;;;9.95;83.35
43820;BME280;67762;52.476;6.046;2023-02-21T10:36:58;101895.16;;;9.97;83.04
43820;BME280;67762;52.476;6.046;2023-02-21T10:39:45;101896.72;;;9.99;83.11
43820;BME280;67762;52.476;6.046;2023-02-21T10:42:38;101896.16;;;9.96;82.95
43820;BME280;67762;52.476;6.046;2023-02-21T10:45:06;101903.91;;;9.99;83.06
43820;BME280;67762;52.476;6.046;2023-02-21T10:47:44;101904.19;;;10.06;82.62
43820;BME280;67762;52.476;6.046;2023-02-21T10:50:12;101905.03;;;10.06;82.74
43820;BME280;67762;52.476;6.046;2023-02-21T10:52:49;101899.97;;;10.03;82.70
43820;BME280;67762;52.476;6.046;2023-02-21T10:55:18;101907.13;;;10.02;82.77
43820;BME280;67762;52.476;6.046;2023-02-21T10:57:45;101907.84;;;10.05;82.69
43820;BME280;67762;52.476;6.046;2023-02-21T11:00:39;101910.78;;;10.02;82.35
43820;BME280;67762;52.476;6.046;2023-02-21T11:05:51;101914.00;;;10.05;82.58
43820;BME280;67762;52.476;6.046;2023-02-21T11:08:35;101915.44;;;10.09;82.19
43820;BME280;67762;52.476;6.046;2023-02-21T11:11:02;101909.84;;;10.12;82.40
43820;BME280;67762;52.476;6.046;2023-02-21T11:13:29;101907.28;;;10.11;82.20
43820;BME280;67762;52.476;6.046;2023-02-21T11:16:17;101907.91;;;10.14;82.83
43820;BME280;67762;52.476;6.046;2023-02-21T11:18:44;101906.66;;;10.18;82.62
43820;BME280;67762;52.476;6.046;2023-02-21T11:21:17;101907.94;;;10.24;81.86
43820;BME280;67762;52.476;6.046;2023-02-21T11:23:46;101896.56;;;10.22;82.41
43820;BME280;67762;52.476;6.046;2023-02-21T11:26:13;101900.06;;;10.22;82.30
43820;BME280;67762;52.476;6.046;2023-02-21T11:28:42;101897.13;;;10.25;82.29
43820;BME280;67762;52.476;6.046;2023-02-21T11:31:15;101901.50;;;10.26;82.20
43820;BME280;67762;52.476;6.046;2023-02-21T11:33:49;101890.94;;;10.25;81.73
43820;BME280;67762;52.476;6.046;2023-02-21T11:36:17;101887.88;;;10.29;81.70
43820;BME280;67762;52.476;6.046;2023-02-21T11:38:58;101883.94;;;10.33;81.46
43820;BME280;67762;52.476;6.046;2023-02-21T11:43:55;101883.13;;;10.33;81.53
43820;BME280;67762;52.476;6.046;2023-02-21T11:46:39;101888.31;;;10.34;81.36
43820;BME280;67762;52.476;6.046;2023-02-21T11:49:36;101886.78;;;10.41;81.92
43820;BME280;67762;52.476;6.046;2023-02-21T11:52:13;101877.81;;;10.42;81.28
43820;BME280;67762;52.476;6.046;2023-02-21T11:54:40;101881.16;;;10.44;81.79
43820;BME280;67762;52.476;6.046;2023-02-21T11:57:47;101883.56;;;10.47;81.83
43820;BME280;67762;52.476;6.046;2023-02-21T12:14:18;101870.94;;;10.59;81.30
43820;BME280;67762;52.476;6.046;2023-02-21T12:17:03;101866.47;;;10.60;81.27
43820;BME280;67762;52.476;6.046;2023-02-21T12:20:44;101870.81;;;10.61;81.16
43820;BME280;67762;52.476;6.046;2023-02-21T12:23:06;101867.84;;;10.64;80.36
43820;BME280;67762;52.476;6.046;2023-02-21T12:25:56;101864.78;;;10.68;80.58
43820;BME280;67762;52.476;6.046;2023-02-21T12:41:48;101846.22;;;10.57;80.05
43820;BME280;67762;52.476;6.046;2023-02-21T12:44:23;101848.59;;;10.50;80.15
43820;BME280;67762;52.476;6.046;2023-02-21T12:49:43;101845.34;;;10.47;80.03
43820;BME280;67762;52.476;6.046;2023-02-21T12:52:24;101836.81;;;10.43;80.89
43820;BME280;67762;52.476;6.046;2023-02-21T12:57:42;101836.22;;;10.40;80.68
43820;BME280;67762;52.476;6.046;2023-02-21T13:00:20;101837.19;;;10.39;80.66
43820;BME280;67762;52.476;6.046;2023-02-21T13:05:25;101837.78;;;10.33;80.99
43820;BME280;67762;52.476;6.046;2023-02-21T13:08:06;101843.25;;;10.31;80.60
43820;BME280;67762;52.476;6.046;2023-02-21T13:10:47;101833.53;;;10.30;80.55
43820;BME280;67762;52.476;6.046;2023-02-21T13:13:18;101834.81;;;10.26;80.57
43820;BME280;67762;52.476;6.046;2023-02-21T13:15:47;101828.47;;;10.27;80.71
43820;BME280;67762;52.476;6.046;2023-02-21T13:20:42;101831.72;;;10.21;81.08
43820;BME280;67762;52.476;6.046;2023-02-21T13:23:10;101828.31;;;10.19;81.44
43820;BME280;67762;52.476;6.046;2023-02-21T13:26:28;101825.09;;;10.16;81.55
43820;BME280;67762;52.476;6.046;2023-02-21T13:28:56;101826.06;;;10.15;81.46
43820;BME280;67762;52.476;6.046;2023-02-21T13:31:32;101817.09;;;10.16;81.75
43820;BME280;67762;52.476;6.046;2023-02-21T13:34:06;101812.19;;;10.21;81.11
43820;BME280;67762;52.476;6.046;2023-02-21T13:36:42;101809.53;;;10.21;81.14
43820;BME280;67762;52.476;6.046;2023-02-21T13:39:20;101807.72;;;10.21;81.56
43820;BME280;67762;52.476;6.046;2023-02-21T13:42:14;101805.88;;;10.22;81.85
43820;BME280;67762;52.476;6.046;2023-02-21T13:44:43;101801.53;;;10.21;81.56
43820;BME280;67762;52.476;6.046;2023-02-21T13:47:21;101795.63;;;10.17;81.30
43820;BME280;67762;52.476;6.046;2023-02-21T14:21:09;101777.63;;;10.10;82.54
43820;BME280;67762;52.476;6.046;2023-02-21T14:23:57;101782.53;;;10.05;82.70
43820;BME280;67762;52.476;6.046;2023-02-21T14:34:50;101782.59;;;9.84;83.02
43820;BME280;67762;52.476;6.046;2023-02-21T14:39:54;101783.16;;;9.78;83.48
43820;BME280;67762;52.476;6.046;2023-02-21T14:48:00;101779.78;;;9.76;83.40
43820;BME280;67762;52.476;6.046;2023-02-21T14:51:38;101774.72;;;9.73;83.57
43820;BME280;67762;52.476;6.046;2023-02-21T15:05:38;101772.75;;;9.65;84.12
43820;BME280;67762;52.476;6.046;2023-02-21T15:08:22;101778.06;;;9.65;84.15
43820;BME280;67762;52.476;6.046;2023-02-21T15:10:50;101773.69;;;9.64;84.24
43820;BME280;67762;52.476;6.046;2023-02-21T15:13:31;101775.41;;;9.65;84.56
43820;BME280;67762;52.476;6.046;2023-02-21T15:18:28;101777.91;;;9.67;84.34
43820;BME280;67762;52.476;6.046;2023-02-21T15:21:06;101770.06;;;9.65;84.57
43820;BME280;67762;52.476;6.046;2023-02-21T15:23:32;101771.03;;;9.64;84.62
43820;BME280;67762;52.476;6.046;2023-02-21T15:26:00;101775.25;;;9.67;84.81
43820;BME280;67762;52.476;6.046;2023-02-21T15:28:33;101771.88;;;9.65;84.62
43820;BME280;67762;52.476;6.046;2023-02-21T15:31:05;101771.03;;;9.64;84.77
43820;BME280;67762;52.476;6.046;2023-02-21T15:33:34;101770.34;;;9.62;84.84
43820;BME280;67762;52.476;6.046;2023-02-21T15:36:18;101778.44;;;9.61;84.96
43820;BME280;67762;52.476;6.046;2023-02-21T15:39:05;101773.28;;;9.59;85.11
43820;BME280;67762;52.476;6.046;2023-02-21T15:41:44;101769.06;;;9.57;85.28
43820;BME280;67762;52.476;6.046;2023-02-21T15:44:17;101772.69;;;9.56;85.20
43820;BME280;67762;52.476;6.046;2023-02-21T15:46:48;101770.28;;;9.53;85.04
43820;BME280;67762;52.476;6.046;2023-02-21T15:51:46;101764.25;;;9.51;85.22
43820;BME280;67762;52.476;6.046;2023-02-21T15:56:41;101761.84;;;9.48;85.24
43820;BME280;67762;52.476;6.046;2023-02-21T15:59:27;101764.69;;;9.46;85.30